createdAt,value
2023-04-30T00:00:40.962Z,101329.69
2023-04-30T00:03:10.761Z,101341.16
2023-04-30T00:05:40.101Z,101333.59
2023-04-30T00:08:08.297Z,101333.38
2023-04-30T00:10:36.407Z,101357.28
2023-04-30T00:13:04.528Z,101338.78
2023-04-30T00:15:53.935Z,101338.69
2023-04-30T00:18:25.038Z,101339.09
2023-04-30T00:20:53.604Z,101347.59
2023-04-30T00:23:21.427Z,101330.66
2023-04-30T00:25:49.298Z,101361.34
2023-04-30T00:28:17.332Z,101347.03
2023-04-30T00:30:45.086Z,101344.94
2023-04-30T00:33:13.870Z,101365.66
2023-04-30T00:35:43.387Z,101360.91
2023-04-30T00:38:11.486Z,101361.09
2023-04-30T00:40:42.050Z,101363.28
2023-04-30T00:43:10.052Z,101353.22
2023-04-30T00:45:37.902Z,101347.94
2023-04-30T00:48:06.064Z,101353.09
2023-04-30T00:50:34.310Z,101367.72
2023-04-30T00:53:04.018Z,101366.03
2023-04-30T00:55:31.905Z,101354.97
2023-04-30T00:58:01.555Z,101352.00
2023-04-30T01:00:31.258Z,101376.63
2023-04-30T01:02:59.114Z,101367.59
2023-04-30T01:05:27.124Z,101371.25
2023-04-30T01:07:55.420Z,101360.66
2023-04-30T01:10:28.635Z,101348.50
2023-04-30T01:13:01.075Z,101360.81
2023-04-30T01:15:31.785Z,101368.59
2023-04-30T01:18:05.440Z,101363.59
2023-04-30T01:20:34.974Z,101364.28
2023-04-30T01:23:10.051Z,101363.50
2023-04-30T01:25:55.500Z,101363.13
2023-04-30T01:28:25.982Z,101361.88
2023-04-30T01:30:54.496Z,101372.06
2023-04-30T01:33:22.695Z,101388.06
2023-04-30T01:36:08.927Z,101367.06
2023-04-30T01:38:48.107Z,101368.97
2023-04-30T01:41:22.129Z,101370.09
2023-04-30T01:44:01.159Z,101366.19
2023-04-30T01:46:31.285Z,101377.31
2023-04-30T01:49:08.389Z,101361.47
2023-04-30T01:51:42.116Z,101372.69
2023-04-30T01:54:18.854Z,101383.91
2023-04-30T01:56:54.744Z,101392.00
2023-04-30T01:59:26.379Z,101368.94
2023-04-30T02:01:55.332Z,101389.72
2023-04-30T02:04:23.864Z,101376.81
2023-04-30T02:06:52.514Z,101386.63
2023-04-30T02:09:24.379Z,101394.66
2023-04-30T02:11:52.187Z,101403.78
2023-04-30T02:14:19.887Z,101391.38
2023-04-30T02:16:49.710Z,101405.78
2023-04-30T02:19:18.007Z,101389.25
2023-04-30T02:21:45.894Z,101397.94
2023-04-30T02:24:14.396Z,101372.28
2023-04-30T02:26:44.126Z,101393.88
2023-04-30T02:29:12.347Z,101411.72
2023-04-30T02:31:40.130Z,101406.03
2023-04-30T02:34:11.418Z,101416.31
2023-04-30T02:36:39.113Z,101397.13
2023-04-30T02:39:09.119Z,101407.31
2023-04-30T02:41:37.813Z,101413.47
2023-04-30T02:44:06.299Z,101418.19
2023-04-30T02:46:34.411Z,101394.88
2023-04-30T02:49:03.571Z,101408.94
2023-04-30T02:51:32.985Z,101419.88
2023-04-30T02:54:00.788Z,101429.16
2023-04-30T02:56:28.639Z,101428.50
2023-04-30T02:58:56.433Z,101411.22
2023-04-30T03:01:24.173Z,101418.66
2023-04-30T03:03:52.243Z,101408.91
2023-04-30T03:06:22.785Z,101399.94
2023-04-30T03:08:52.053Z,101399.63
2023-04-30T03:11:19.798Z,101410.00
2023-04-30T03:13:49.806Z,101400.47
2023-04-30T03:16:18.122Z,101386.38
2023-04-30T03:18:46.394Z,101392.78
2023-04-30T03:21:14.282Z,101416.75
2023-04-30T03:23:42.123Z,101417.50
2023-04-30T03:26:11.359Z,101398.63
2023-04-30T03:28:39.127Z,101408.31
2023-04-30T03:31:07.334Z,101388.69
2023-04-30T03:33:35.214Z,101385.13
2023-04-30T03:36:03.007Z,101391.16
2023-04-30T03:38:33.126Z,101393.84
2023-04-30T03:41:00.859Z,101421.94
2023-04-30T03:43:32.716Z,101407.50
2023-04-30T03:46:00.481Z,101400.91
2023-04-30T03:48:28.479Z,101408.50
2023-04-30T03:50:56.724Z,101407.72
2023-04-30T03:53:25.859Z,101415.78
2023-04-30T03:55:55.510Z,101413.50
2023-04-30T03:58:23.837Z,101414.72
2023-04-30T04:00:53.062Z,101413.66
2023-04-30T04:03:21.012Z,101409.78
2023-04-30T04:05:51.408Z,101414.94
2023-04-30T04:08:20.394Z,101395.09
2023-04-30T04:10:48.275Z,101392.63
2023-04-30T04:13:15.988Z,101394.91
2023-04-30T04:15:43.838Z,101411.91
2023-04-30T04:18:13.293Z,101395.53
2023-04-30T04:20:41.316Z,101411.16
2023-04-30T04:23:11.272Z,101404.41
2023-04-30T04:25:41.738Z,101378.53
2023-04-30T04:28:09.453Z,101382.63
2023-04-30T04:30:37.861Z,101407.44
2023-04-30T04:33:09.219Z,101401.50
2023-04-30T04:35:38.907Z,101400.06
2023-04-30T04:38:06.668Z,101416.59
2023-04-30T04:40:38.688Z,101405.44
2023-04-30T04:43:06.648Z,101410.56
2023-04-30T04:45:34.332Z,101391.78
2023-04-30T04:48:02.179Z,101396.34
2023-04-30T04:50:31.185Z,101410.38
2023-04-30T04:53:00.386Z,101403.31
2023-04-30T04:55:28.456Z,101399.91
2023-04-30T04:57:57.319Z,101406.63
2023-04-30T05:00:26.289Z,101403.94
2023-04-30T05:02:54.059Z,101401.28
2023-04-30T05:05:21.818Z,101404.44
2023-04-30T05:07:52.523Z,101410.19
2023-04-30T05:10:21.916Z,101411.34
2023-04-30T05:12:49.696Z,101410.66
2023-04-30T05:15:17.557Z,101415.41
2023-04-30T05:17:48.289Z,101421.75
2023-04-30T05:20:16.339Z,101419.63
2023-04-30T05:22:44.193Z,101412.00
2023-04-30T05:25:11.928Z,101418.25
2023-04-30T05:27:41.060Z,101420.41
2023-04-30T05:30:10.602Z,101422.88
2023-04-30T05:32:38.444Z,101425.13
2023-04-30T05:35:09.073Z,101433.31
2023-04-30T05:37:37.064Z,101429.28
2023-04-30T05:40:06.381Z,101436.13
2023-04-30T05:42:38.308Z,101421.69
2023-04-30T05:45:08.955Z,101437.66
2023-04-30T05:47:36.745Z,101431.91
2023-04-30T05:50:05.433Z,101443.97
2023-04-30T05:52:34.833Z,101428.63
2023-04-30T05:55:15.133Z,101439.31
2023-04-30T05:57:44.370Z,101442.94
2023-04-30T06:00:15.800Z,101444.81
2023-04-30T06:02:43.800Z,101441.97
2023-04-30T06:05:13.369Z,101456.69
2023-04-30T06:07:43.431Z,101456.03
2023-04-30T06:10:12.838Z,101453.41
2023-04-30T06:12:40.975Z,101449.69
2023-04-30T06:15:10.655Z,101452.75
2023-04-30T06:17:40.209Z,101456.69
2023-04-30T06:20:09.852Z,101469.88
2023-04-30T06:22:37.566Z,101463.84
2023-04-30T06:25:06.026Z,101457.75
2023-04-30T06:27:33.739Z,101448.63
2023-04-30T06:30:01.964Z,101461.28
2023-04-30T06:32:30.226Z,101462.25
2023-04-30T06:35:00.387Z,101458.44
2023-04-30T06:37:28.757Z,101459.03
2023-04-30T06:39:57.094Z,101459.88
2023-04-30T06:42:25.539Z,101444.88
2023-04-30T06:44:55.475Z,101464.09
2023-04-30T06:47:23.262Z,101456.47
2023-04-30T06:49:51.452Z,101456.25
2023-04-30T06:52:21.781Z,101470.25
2023-04-30T06:54:49.472Z,101454.09
2023-04-30T06:57:17.574Z,101454.88
2023-04-30T06:59:47.160Z,101457.59
2023-04-30T07:02:14.942Z,101464.41
2023-04-30T07:04:43.036Z,101456.72
2023-04-30T07:07:10.818Z,101469.84
2023-04-30T07:09:40.661Z,101454.69
2023-04-30T07:12:08.881Z,101457.72
2023-04-30T07:14:36.872Z,101448.66
2023-04-30T07:17:04.584Z,101468.81
2023-04-30T07:19:32.905Z,101471.38
2023-04-30T07:22:00.602Z,101457.41
2023-04-30T07:24:57.128Z,101453.19
2023-04-30T07:27:28.308Z,101456.28
2023-04-30T07:29:56.723Z,101461.47
2023-04-30T07:32:27.532Z,101456.44
2023-04-30T07:34:56.332Z,101460.56
2023-04-30T07:37:23.997Z,101459.38
2023-04-30T07:39:51.888Z,101454.63
2023-04-30T07:42:19.793Z,101455.75
2023-04-30T07:44:50.013Z,101471.88
2023-04-30T07:47:18.894Z,101462.78
2023-04-30T07:49:49.366Z,101467.38
2023-04-30T07:52:17.421Z,101454.31
2023-04-30T07:54:45.083Z,101474.00
2023-04-30T07:57:15.871Z,101457.63
2023-04-30T07:59:43.554Z,101458.94
2023-04-30T08:02:16.024Z,101464.19
2023-04-30T08:04:44.178Z,101460.28
2023-04-30T08:07:12.550Z,101465.81
2023-04-30T08:09:41.211Z,101474.84
2023-04-30T08:12:14.279Z,101466.38
2023-04-30T08:14:41.958Z,101470.66
2023-04-30T08:17:09.971Z,101468.50
2023-04-30T08:19:41.485Z,101475.69
2023-04-30T08:22:09.460Z,101463.94
2023-04-30T08:24:37.298Z,101470.31
2023-04-30T08:27:05.144Z,101452.28
2023-04-30T08:29:32.832Z,101478.31
2023-04-30T08:32:05.689Z,101460.81
2023-04-30T08:34:36.815Z,101490.66
2023-04-30T08:37:06.143Z,101472.69
2023-04-30T08:39:47.143Z,101466.22
2023-04-30T08:42:16.280Z,101472.06
2023-04-30T08:44:46.636Z,101459.47
2023-04-30T08:47:15.049Z,101463.78
2023-04-30T08:49:45.758Z,101484.13
2023-04-30T08:52:15.389Z,101468.66
2023-04-30T08:54:43.583Z,101448.28
2023-04-30T08:57:11.828Z,101463.34
2023-04-30T08:59:39.816Z,101470.41
2023-04-30T09:02:07.892Z,101465.38
2023-04-30T09:04:35.856Z,101462.03
2023-04-30T09:07:06.250Z,101491.72
2023-04-30T09:09:40.812Z,101459.59
2023-04-30T09:12:18.591Z,101486.13
2023-04-30T09:14:59.884Z,101473.63
2023-04-30T09:17:30.828Z,101457.09
2023-04-30T09:20:08.991Z,101486.81
2023-04-30T09:22:38.586Z,101465.19
2023-04-30T09:25:08.972Z,101480.31
2023-04-30T09:27:37.010Z,101478.66
2023-04-30T09:30:06.027Z,101456.34
2023-04-30T09:32:34.081Z,101477.59
2023-04-30T09:35:01.834Z,101469.09
2023-04-30T09:37:38.071Z,101466.97
2023-04-30T09:40:11.707Z,101450.38
2023-04-30T09:42:39.804Z,101456.09
2023-04-30T09:45:08.766Z,101466.84
2023-04-30T09:47:36.642Z,101472.38
2023-04-30T09:50:04.607Z,101463.81
2023-04-30T09:52:32.278Z,101451.44
2023-04-30T09:55:00.050Z,101462.84
2023-04-30T09:57:32.354Z,101445.19
2023-04-30T10:00:00.650Z,101470.00
2023-04-30T10:02:28.912Z,101440.53
2023-04-30T10:04:59.288Z,101446.72
2023-04-30T10:07:32.714Z,101445.19
2023-04-30T10:10:06.397Z,101440.06
2023-04-30T10:12:41.105Z,101428.41
2023-04-30T10:15:13.299Z,101432.28
2023-04-30T10:17:42.551Z,101417.19
2023-04-30T10:20:11.665Z,101419.41
2023-04-30T10:22:41.715Z,101445.84
2023-04-30T10:25:13.418Z,101415.78
2023-04-30T10:27:43.062Z,101426.00
2023-04-30T10:30:15.617Z,101437.47
2023-04-30T10:32:48.640Z,101420.22
2023-04-30T10:35:21.032Z,101409.34
2023-04-30T10:37:52.004Z,101429.13
2023-04-30T10:40:20.266Z,101408.22
2023-04-30T10:42:50.023Z,101417.69
2023-04-30T10:45:17.890Z,101417.47
2023-04-30T10:47:46.806Z,101407.94
2023-04-30T10:50:14.541Z,101393.19
2023-04-30T10:52:42.218Z,101404.53
2023-04-30T10:55:11.214Z,101404.34
2023-04-30T10:57:42.587Z,101407.22
2023-04-30T11:00:21.797Z,101386.97
2023-04-30T11:02:50.047Z,101399.38
2023-04-30T11:05:18.956Z,101386.47
2023-04-30T11:07:50.562Z,101380.88
2023-04-30T11:10:21.622Z,101380.75
2023-04-30T11:12:49.948Z,101374.59
2023-04-30T11:15:21.632Z,101381.31
2023-04-30T11:17:49.966Z,101360.16
2023-04-30T11:20:21.103Z,101372.16
2023-04-30T11:22:48.874Z,101371.63
2023-04-30T11:25:20.403Z,101357.84
2023-04-30T11:27:48.166Z,101367.53
2023-04-30T11:30:17.364Z,101352.50
2023-04-30T11:32:48.406Z,101365.19
2023-04-30T11:35:44.744Z,101349.25
2023-04-30T11:38:14.195Z,101357.41
2023-04-30T11:40:42.553Z,101359.41
2023-04-30T11:43:22.642Z,101336.59
2023-04-30T11:46:04.410Z,101338.94
2023-04-30T11:48:34.614Z,101348.13
2023-04-30T11:51:05.137Z,101354.94
2023-04-30T11:53:33.004Z,101347.03
2023-04-30T11:56:04.868Z,101326.84
2023-04-30T11:58:38.019Z,101329.78
2023-04-30T12:01:06.469Z,101328.16
2023-04-30T12:03:42.053Z,101324.63
2023-04-30T12:06:11.747Z,101332.78
2023-04-30T12:08:40.024Z,101344.50
2023-04-30T12:11:20.820Z,101305.53
2023-04-30T12:13:52.110Z,101312.34
2023-04-30T12:16:20.095Z,101327.72
2023-04-30T12:18:51.343Z,101316.81
2023-04-30T12:21:21.533Z,101305.19
2023-04-30T12:23:49.472Z,101308.19
2023-04-30T12:26:18.145Z,101302.97
2023-04-30T12:28:48.580Z,101316.19
2023-04-30T12:31:16.424Z,101303.06
2023-04-30T12:34:24.462Z,101298.63
2023-04-30T12:36:52.144Z,101311.66
2023-04-30T12:39:19.886Z,101308.00
2023-04-30T12:41:48.845Z,101318.44
2023-04-30T12:44:21.250Z,101303.19
2023-04-30T12:46:49.553Z,101291.91
2023-04-30T12:49:29.279Z,101309.63
2023-04-30T12:52:01.571Z,101294.59
2023-04-30T12:54:30.732Z,101288.75
2023-04-30T12:57:03.409Z,101286.22
2023-04-30T12:59:32.056Z,101301.06
2023-04-30T13:02:08.288Z,101297.00
2023-04-30T13:04:37.593Z,101282.38
2023-04-30T13:07:05.553Z,101266.91
2023-04-30T13:09:34.401Z,101302.72
2023-04-30T13:12:02.293Z,101293.50
2023-04-30T13:14:30.145Z,101295.84
2023-04-30T13:16:57.967Z,101269.78
2023-04-30T13:19:26.179Z,101258.81
2023-04-30T13:21:55.280Z,101274.75
2023-04-30T13:24:23.048Z,101262.97
2023-04-30T13:26:50.801Z,101273.75
2023-04-30T13:29:20.797Z,101266.97
2023-04-30T13:31:49.962Z,101260.66
2023-04-30T13:34:17.760Z,101284.03
2023-04-30T13:36:46.882Z,101266.88
2023-04-30T13:39:16.346Z,101267.22
2023-04-30T13:44:26.455Z,101246.00
2023-04-30T13:46:54.198Z,101262.41
2023-04-30T13:49:21.942Z,101263.66
2023-04-30T13:51:49.922Z,101251.75
2023-04-30T13:54:19.416Z,101248.69
2023-04-30T13:56:48.747Z,101238.16
2023-04-30T13:59:16.733Z,101246.13
2023-04-30T14:01:44.557Z,101246.50
2023-04-30T14:04:36.037Z,101242.72
2023-04-30T14:07:04.015Z,101230.94
2023-04-30T14:09:33.159Z,101244.88
2023-04-30T14:12:01.064Z,101237.66
2023-04-30T14:14:29.013Z,101247.34
2023-04-30T14:16:56.895Z,101229.69
2023-04-30T14:19:24.668Z,101227.25
2023-04-30T14:21:52.377Z,101226.34
2023-04-30T14:24:20.167Z,101222.91
2023-04-30T14:26:49.303Z,101215.28
2023-04-30T14:29:20.469Z,101202.81
2023-04-30T14:31:50.708Z,101208.59
2023-04-30T14:34:19.818Z,101225.59
2023-04-30T14:36:47.591Z,101212.50
2023-04-30T14:39:15.326Z,101206.75
2023-04-30T14:41:42.998Z,101219.81
2023-04-30T14:44:12.116Z,101231.53
2023-04-30T14:46:40.837Z,101219.13
2023-04-30T14:49:08.578Z,101223.53
2023-04-30T14:51:59.594Z,101205.34
2023-04-30T14:54:27.331Z,101189.94
2023-04-30T14:56:55.222Z,101182.19
2023-04-30T14:59:24.340Z,101181.75
2023-04-30T15:01:52.128Z,101179.38
2023-04-30T15:04:19.988Z,101189.16
2023-04-30T15:06:48.479Z,101190.16
2023-04-30T15:09:16.904Z,101168.72
2023-04-30T15:11:44.625Z,101186.38
2023-04-30T15:14:12.700Z,101180.97
2023-04-30T15:16:42.317Z,101170.00
2023-04-30T15:19:10.254Z,101188.03
2023-04-30T15:21:37.929Z,101182.38
2023-04-30T15:24:06.366Z,101173.38
2023-04-30T15:26:34.139Z,101175.31
2023-04-30T15:29:01.951Z,101160.09
2023-04-30T15:31:30.772Z,101177.22
2023-04-30T15:33:59.965Z,101168.34
2023-04-30T15:36:27.688Z,101168.72
2023-04-30T15:38:55.429Z,101161.78
2023-04-30T15:41:23.220Z,101169.69
2023-04-30T15:43:51.201Z,101166.19
2023-04-30T15:46:19.372Z,101158.44
2023-04-30T15:48:47.137Z,101167.31
2023-04-30T15:51:16.267Z,101152.00
2023-04-30T15:53:43.941Z,101171.84
2023-04-30T15:56:12.056Z,101160.50
2023-04-30T15:58:40.393Z,101171.13
2023-04-30T16:01:08.840Z,101159.09
2023-04-30T16:03:37.721Z,101143.84
2023-04-30T16:06:05.853Z,101137.63
2023-04-30T16:08:35.306Z,101132.81
2023-04-30T16:11:03.649Z,101134.03
2023-04-30T16:13:31.359Z,101135.50
2023-04-30T16:15:59.049Z,101130.06
2023-04-30T16:18:26.795Z,101131.75
2023-04-30T16:20:54.505Z,101123.63
2023-04-30T16:23:22.488Z,101134.28
2023-04-30T16:25:51.582Z,101140.41
2023-04-30T16:28:19.356Z,101136.91
2023-04-30T16:30:47.394Z,101136.56
2023-04-30T16:33:15.111Z,101138.66
2023-04-30T16:35:43.555Z,101122.56
2023-04-30T16:38:11.319Z,101138.75
2023-04-30T16:40:39.030Z,101112.22
2023-04-30T16:43:08.208Z,101117.50
2023-04-30T16:45:36.176Z,101116.34
2023-04-30T16:48:04.070Z,101107.84
2023-04-30T16:50:31.959Z,101118.84
2023-04-30T16:52:59.665Z,101129.94
2023-04-30T16:55:27.601Z,101121.00
2023-04-30T16:57:56.365Z,101114.41
2023-04-30T17:00:25.534Z,101112.88
2023-04-30T17:02:53.979Z,101116.19
2023-04-30T17:05:22.358Z,101110.44
2023-04-30T17:07:50.420Z,101094.53
2023-04-30T17:13:32.438Z,101106.03
2023-04-30T17:16:02.342Z,101091.19
2023-04-30T17:18:30.190Z,101090.38
2023-04-30T17:20:57.940Z,101087.53
2023-04-30T17:23:26.036Z,101089.94
2023-04-30T17:25:53.783Z,101095.72
2023-04-30T17:28:21.856Z,101077.34
2023-04-30T17:30:49.925Z,101077.34
2023-04-30T17:33:19.311Z,101081.34
2023-04-30T17:35:46.999Z,101079.88
2023-04-30T17:38:14.865Z,101077.34
2023-04-30T17:40:42.559Z,101065.72
2023-04-30T17:43:10.330Z,101074.47
2023-04-30T17:45:38.399Z,101079.97
2023-04-30T17:48:06.282Z,101078.94
2023-04-30T17:50:35.507Z,101077.34
2023-04-30T17:53:03.280Z,101073.56
2023-04-30T17:55:31.002Z,101066.44
2023-04-30T17:57:59.452Z,101058.47
2023-04-30T18:00:27.169Z,101054.16
2023-04-30T18:02:54.925Z,101073.03
2023-04-30T18:05:22.929Z,101071.34
2023-04-30T18:07:52.049Z,101076.72
2023-04-30T18:10:19.734Z,101065.63
2023-04-30T18:12:47.449Z,101067.78
2023-04-30T18:15:15.331Z,101056.09
2023-04-30T18:17:43.715Z,101062.59
2023-04-30T18:20:13.236Z,101059.81
2023-04-30T18:22:43.552Z,101057.41
2023-04-30T18:25:14.262Z,101046.81
2023-04-30T18:27:42.354Z,101066.91
2023-04-30T18:30:11.926Z,101058.25
2023-04-30T18:32:42.027Z,101063.25
2023-04-30T18:35:10.834Z,101054.97
2023-04-30T18:37:38.747Z,101054.16
2023-04-30T18:40:07.725Z,101059.13
2023-04-30T18:42:37.547Z,101051.72
2023-04-30T18:45:06.098Z,101058.25
2023-04-30T18:47:34.140Z,101052.19
2023-04-30T18:50:01.927Z,101058.72
2023-04-30T18:52:29.829Z,101059.69
2023-04-30T18:54:57.687Z,101048.59
2023-04-30T18:57:25.590Z,101044.53
2023-04-30T18:59:55.000Z,101051.28
2023-04-30T19:02:23.031Z,101049.75
2023-04-30T19:04:50.891Z,101038.88
2023-04-30T19:07:18.565Z,101041.06
2023-04-30T19:09:48.394Z,101035.41
2023-04-30T19:12:16.159Z,101049.38
2023-04-30T19:14:45.244Z,101050.13
2023-04-30T19:17:14.647Z,101066.34
2023-04-30T19:19:43.774Z,101057.53
2023-04-30T19:22:11.679Z,101060.75
2023-04-30T19:24:39.442Z,101052.38
2023-04-30T19:27:07.101Z,101055.81
2023-04-30T19:29:35.199Z,101062.22
2023-04-30T19:32:04.913Z,101070.09
2023-04-30T19:34:34.645Z,101063.94
2023-04-30T19:37:02.380Z,101054.09
2023-04-30T19:39:30.568Z,101058.28
2023-04-30T19:41:59.014Z,101063.13
2023-04-30T19:44:29.209Z,101059.50
2023-04-30T19:46:57.762Z,101074.03
2023-04-30T19:49:26.614Z,101056.47
2023-04-30T19:51:55.883Z,101054.00
2023-04-30T19:54:23.639Z,101054.09
2023-04-30T19:56:52.875Z,101058.53
2023-04-30T19:59:20.760Z,101059.63
2023-04-30T20:01:48.882Z,101059.06
2023-04-30T20:04:16.686Z,101053.97
2023-04-30T20:06:44.715Z,101049.03
2023-04-30T20:09:15.116Z,101050.09
2023-04-30T20:11:42.814Z,101048.06
2023-04-30T20:14:10.968Z,101048.88
2023-04-30T20:16:38.835Z,101040.47
2023-04-30T20:19:07.258Z,101042.56
2023-04-30T20:21:34.938Z,101027.16
2023-04-30T20:24:04.212Z,101040.22
2023-04-30T20:26:34.149Z,101038.19
2023-04-30T20:29:01.817Z,101041.06
2023-04-30T20:31:31.311Z,101045.97
2023-04-30T20:33:59.528Z,101042.81
2023-04-30T20:36:29.729Z,101041.19
2023-04-30T20:38:57.419Z,101037.78
2023-04-30T20:41:25.821Z,101032.09
2023-04-30T20:43:56.808Z,101037.00
2023-04-30T20:46:24.966Z,101022.63
2023-04-30T20:48:54.558Z,101035.81
2023-04-30T20:51:23.567Z,101022.34
2023-04-30T20:53:51.338Z,101021.06
2023-04-30T20:56:19.024Z,101019.41
2023-04-30T20:58:46.760Z,101006.31
2023-04-30T21:01:15.936Z,101001.06
2023-04-30T21:03:43.719Z,101009.88
2023-04-30T21:06:12.048Z,101008.81
2023-04-30T21:08:39.741Z,100994.00
2023-04-30T21:11:07.503Z,101004.00
2023-04-30T21:13:35.274Z,101000.03
2023-04-30T21:16:05.232Z,100994.63
2023-04-30T21:18:35.154Z,100994.53
2023-04-30T21:21:03.749Z,100985.88
2023-04-30T21:23:32.590Z,100992.28
2023-04-30T21:26:00.572Z,100991.38
2023-04-30T21:28:28.314Z,100997.09
2023-04-30T21:30:56.203Z,100999.75
2023-04-30T21:33:23.986Z,101007.47
2023-04-30T21:35:53.050Z,101005.91
2023-04-30T21:38:20.762Z,101003.19
2023-04-30T21:40:48.461Z,100990.53
2023-04-30T21:43:17.839Z,100992.38
2023-04-30T21:45:45.699Z,100989.91
2023-04-30T21:48:13.593Z,101001.28
2023-04-30T21:50:41.283Z,100999.25
2023-04-30T21:53:10.818Z,100990.84
2023-04-30T21:55:38.520Z,100990.41
2023-04-30T21:58:06.222Z,100985.94
2023-04-30T22:00:34.907Z,100986.19
2023-04-30T22:03:02.636Z,100988.38
2023-04-30T22:05:30.376Z,100974.66
2023-04-30T22:07:58.110Z,100983.66
2023-04-30T22:10:27.412Z,100978.31
2023-04-30T22:12:55.284Z,100960.59
2023-04-30T22:15:23.104Z,100956.94
2023-04-30T22:17:50.886Z,100967.50
2023-04-30T22:20:18.765Z,100975.91
2023-04-30T22:22:46.841Z,100957.41
2023-04-30T22:25:15.078Z,100953.19
2023-04-30T22:27:45.682Z,100959.03
2023-04-30T22:30:13.564Z,100954.56
2023-04-30T22:32:42.344Z,100947.31
2023-04-30T22:35:12.053Z,100945.91
2023-04-30T22:37:40.370Z,100949.69
2023-04-30T22:40:09.097Z,100951.97
2023-04-30T22:42:36.816Z,100945.13
2023-04-30T22:45:06.967Z,100947.41
2023-04-30T22:47:35.257Z,100950.13
2023-04-30T22:50:03.411Z,100939.97
2023-04-30T22:52:33.086Z,100952.59
2023-04-30T22:55:01.323Z,100952.22
2023-04-30T22:57:29.066Z,100938.25
2023-04-30T22:59:57.451Z,100948.84
2023-04-30T23:02:28.747Z,100942.16
2023-04-30T23:04:56.973Z,100934.59
2023-04-30T23:07:24.817Z,100931.41
2023-04-30T23:09:52.587Z,100932.78
2023-04-30T23:12:20.302Z,100920.81
2023-04-30T23:14:47.983Z,100926.41
2023-04-30T23:17:15.787Z,100925.97
2023-04-30T23:19:44.904Z,100920.19
2023-04-30T23:22:12.661Z,100920.22
2023-04-30T23:24:41.206Z,100920.03
2023-04-30T23:27:08.961Z,100917.84
2023-04-30T23:29:36.742Z,100908.78
2023-04-30T23:32:05.729Z,100907.75
2023-04-30T23:34:33.614Z,100896.91
2023-04-30T23:37:03.047Z,100915.31
2023-04-30T23:39:31.007Z,100908.00
2023-04-30T23:41:58.930Z,100897.03
2023-04-30T23:44:26.678Z,100900.31
2023-04-30T23:46:56.097Z,100897.44
2023-04-30T23:49:24.995Z,100879.78
2023-04-30T23:51:53.176Z,100894.66
2023-04-30T23:54:22.414Z,100878.16
2023-04-30T23:56:50.260Z,100890.69
2023-04-30T23:59:17.943Z,100874.84
